createdAt,value
2022-11-05T00:01:04.720Z,7.40
2022-11-05T00:03:50.080Z,7.40
2022-11-05T00:06:35.637Z,7.40
2022-11-05T00:09:21.020Z,7.30
2022-11-05T00:12:06.730Z,7.30
2022-11-05T00:14:52.287Z,7.30
2022-11-05T00:17:19.160Z,7.20
2022-11-05T00:19:46.107Z,7.20
2022-11-05T00:22:31.506Z,7.20
2022-11-05T00:25:16.959Z,7.20
2022-11-05T00:27:45.451Z,7.10
2022-11-05T00:30:17.010Z,7.10
2022-11-05T00:32:44.879Z,7.00
2022-11-05T00:35:11.925Z,7.00
2022-11-05T00:37:39.351Z,7.00
2022-11-05T00:40:07.556Z,6.90
2022-11-05T00:42:53.350Z,6.80
2022-11-05T00:45:20.645Z,6.90
2022-11-05T00:48:06.257Z,6.80
2022-11-05T00:50:34.146Z,6.80
2022-11-05T00:53:02.924Z,6.70
2022-11-05T00:55:41.450Z,6.70
2022-11-05T00:58:11.757Z,6.60
2022-11-05T01:00:41.143Z,6.50
2022-11-05T01:03:14.666Z,6.60
2022-11-05T01:05:47.546Z,6.50
2022-11-05T01:08:15.909Z,6.50
2022-11-05T01:10:50.901Z,6.50
2022-11-05T01:13:20.705Z,6.40
2022-11-05T01:15:49.004Z,6.30
2022-11-05T01:18:15.882Z,6.40
2022-11-05T01:20:43.304Z,6.40
2022-11-05T01:23:13.472Z,6.40
2022-11-05T01:25:42.182Z,6.30
2022-11-05T01:28:09.991Z,6.20
2022-11-05T01:30:37.437Z,6.20
2022-11-05T01:33:04.612Z,6.20
2022-11-05T01:35:33.010Z,6.10
2022-11-05T01:38:00.288Z,6.10
2022-11-05T01:40:28.514Z,6.10
2022-11-05T01:42:55.425Z,6.10
2022-11-05T01:45:27.854Z,6.00
2022-11-05T01:48:22.763Z,6.00
2022-11-05T01:51:12.309Z,5.90
2022-11-05T01:53:41.793Z,5.80
2022-11-05T01:56:30.666Z,5.80
2022-11-05T01:59:05.920Z,5.80
2022-11-05T02:01:33.664Z,5.90
2022-11-05T02:04:04.297Z,5.90
2022-11-05T02:06:34.105Z,5.80
2022-11-05T02:09:06.925Z,5.80
2022-11-05T02:11:34.515Z,5.80
2022-11-05T02:14:01.728Z,5.80
2022-11-05T02:16:45.905Z,5.80
2022-11-05T02:19:51.556Z,5.80
2022-11-05T02:23:10.165Z,5.80
2022-11-05T02:26:35.070Z,5.80
2022-11-05T02:29:42.771Z,5.80
2022-11-05T02:32:32.651Z,5.80
2022-11-05T02:35:07.754Z,5.80
2022-11-05T02:37:53.583Z,5.80
2022-11-05T02:40:57.706Z,5.70
2022-11-05T02:44:15.469Z,5.70
2022-11-05T02:47:41.227Z,5.70
2022-11-05T02:50:26.948Z,5.70
2022-11-05T02:53:38.918Z,5.70
2022-11-05T02:56:12.001Z,5.70
2022-11-05T02:58:38.965Z,5.60
2022-11-05T03:01:07.214Z,5.60
2022-11-05T03:03:45.087Z,5.50
2022-11-05T03:06:47.749Z,5.50
2022-11-05T03:09:40.875Z,5.50
2022-11-05T03:13:02.634Z,5.50
2022-11-05T03:15:55.022Z,5.50
2022-11-05T03:24:40.595Z,5.50
2022-11-05T03:27:11.512Z,5.50
2022-11-05T03:29:51.455Z,5.60
2022-11-05T03:32:21.935Z,5.60
2022-11-05T03:37:42.606Z,5.50
2022-11-05T03:40:13.239Z,5.50
2022-11-05T03:42:44.833Z,5.50
2022-11-05T03:45:18.501Z,5.60
2022-11-05T03:47:51.209Z,5.60
2022-11-05T03:50:51.914Z,5.60
2022-11-05T03:57:07.054Z,5.60
2022-11-05T03:59:40.957Z,5.60
2022-11-05T04:02:08.793Z,5.60
2022-11-05T04:04:36.186Z,5.60
2022-11-05T04:07:21.914Z,5.50
2022-11-05T04:10:07.978Z,5.40
2022-11-05T04:12:53.522Z,5.40
2022-11-05T04:15:20.449Z,5.50
2022-11-05T04:17:47.482Z,5.50
2022-11-05T04:20:33.102Z,5.50
2022-11-05T04:23:23.534Z,5.50
2022-11-05T04:25:50.868Z,5.50
2022-11-05T04:28:18.019Z,5.50
2022-11-05T04:30:44.971Z,5.50
2022-11-05T04:33:17.123Z,5.50
2022-11-05T04:35:46.635Z,5.50
2022-11-05T04:38:20.643Z,5.50
2022-11-05T04:40:48.348Z,5.50
2022-11-05T04:43:18.038Z,5.50
2022-11-05T04:45:46.197Z,5.50
2022-11-05T04:48:13.425Z,5.40
2022-11-05T04:50:40.886Z,5.40
2022-11-05T04:53:07.991Z,5.40
2022-11-05T04:55:35.052Z,5.30
2022-11-05T04:58:01.980Z,5.40
2022-11-05T05:00:29.158Z,5.40
2022-11-05T05:02:56.326Z,5.40
2022-11-05T05:05:23.373Z,5.40
2022-11-05T05:07:50.521Z,5.40
2022-11-05T05:10:17.648Z,5.40
2022-11-05T05:12:44.604Z,5.40
2022-11-05T05:15:11.547Z,5.40
2022-11-05T05:17:38.478Z,5.30
2022-11-05T05:20:24.171Z,5.30
2022-11-05T05:22:55.127Z,5.30
2022-11-05T05:25:22.577Z,5.20
2022-11-05T05:27:49.574Z,5.20
2022-11-05T05:30:16.706Z,5.20
2022-11-05T05:32:44.024Z,5.20
2022-11-05T05:35:10.937Z,5.20
2022-11-05T05:37:37.923Z,5.30
2022-11-05T05:40:05.296Z,5.20
2022-11-05T05:42:32.685Z,5.20
2022-11-05T05:44:59.618Z,5.20
2022-11-05T05:47:26.581Z,5.20
2022-11-05T05:49:53.692Z,5.10
2022-11-05T05:52:20.708Z,5.10
2022-11-05T05:54:47.566Z,5.00
2022-11-05T05:57:14.526Z,5.10
2022-11-05T05:59:41.528Z,5.00
2022-11-05T06:02:08.663Z,5.10
2022-11-05T06:04:35.654Z,5.10
2022-11-05T06:07:02.522Z,5.10
2022-11-05T06:09:29.530Z,5.10
2022-11-05T06:11:56.405Z,5.10
2022-11-05T06:14:23.409Z,5.10
2022-11-05T06:16:50.429Z,5.10
2022-11-05T06:19:17.362Z,5.10
2022-11-05T06:21:44.335Z,5.20
2022-11-05T06:24:11.186Z,5.10
2022-11-05T06:26:42.817Z,5.10
2022-11-05T06:29:10.714Z,5.10
2022-11-05T06:31:37.692Z,5.10
2022-11-05T06:34:04.622Z,5.10
2022-11-05T06:36:31.848Z,5.10
2022-11-05T06:38:58.833Z,5.10
2022-11-05T06:41:25.746Z,5.00
2022-11-05T06:43:52.697Z,5.10
2022-11-05T06:46:19.931Z,5.00
2022-11-05T06:48:47.812Z,5.00
2022-11-05T06:51:14.786Z,5.00
2022-11-05T06:53:41.670Z,5.00
2022-11-05T06:56:08.808Z,5.10
2022-11-05T06:58:36.218Z,5.10
2022-11-05T07:01:08.719Z,5.40
2022-11-05T07:03:37.515Z,5.70
2022-11-05T07:06:06.211Z,6.00
2022-11-05T07:08:37.612Z,6.20
2022-11-05T07:11:05.062Z,6.40
2022-11-05T07:13:32.506Z,6.50
2022-11-05T07:15:59.524Z,6.70
2022-11-05T07:18:26.430Z,6.80
2022-11-05T07:20:53.416Z,7.00
2022-11-05T07:23:20.424Z,7.20
2022-11-05T07:25:47.388Z,7.30
2022-11-05T07:28:14.727Z,7.40
2022-11-05T07:30:41.942Z,7.70
2022-11-05T07:33:09.856Z,7.90
2022-11-05T07:35:37.010Z,8.10
2022-11-05T07:38:03.945Z,8.20
2022-11-05T07:40:31.068Z,8.50
2022-11-05T07:43:03.036Z,8.70
2022-11-05T07:45:31.353Z,8.90
2022-11-05T07:48:01.144Z,9.30
2022-11-05T07:50:30.838Z,9.50
2022-11-05T07:53:10.067Z,9.80
2022-11-05T07:55:37.753Z,9.70
2022-11-05T07:58:04.717Z,9.90
2022-11-05T08:00:32.041Z,10.10
2022-11-05T08:03:13.520Z,10.40
2022-11-05T08:05:44.808Z,10.60
2022-11-05T08:08:21.703Z,10.90
2022-11-05T08:10:48.691Z,11.30
2022-11-05T08:13:16.227Z,11.70
2022-11-05T08:15:43.632Z,12.00
2022-11-05T08:18:15.819Z,12.20
2022-11-05T08:20:44.421Z,12.20
2022-11-05T08:23:11.731Z,12.50
2022-11-05T08:25:39.910Z,12.60
2022-11-05T08:28:13.030Z,12.70
2022-11-05T08:30:40.345Z,12.50
2022-11-05T08:33:11.779Z,12.50
2022-11-05T08:35:39.880Z,12.50
2022-11-05T08:38:08.235Z,12.60
2022-11-05T08:40:36.508Z,12.80
2022-11-05T08:43:05.676Z,12.90
2022-11-05T08:45:34.061Z,12.90
2022-11-05T08:48:02.886Z,12.80
2022-11-05T08:50:30.934Z,12.70
2022-11-05T08:52:57.897Z,12.60
2022-11-05T08:55:25.466Z,12.80
2022-11-05T08:58:00.678Z,13.00
2022-11-05T09:00:29.662Z,13.40
2022-11-05T09:03:02.592Z,13.20
2022-11-05T09:05:31.786Z,13.40
2022-11-05T09:08:01.371Z,13.50
2022-11-05T09:10:28.831Z,13.30
2022-11-05T09:12:56.174Z,13.10
2022-11-05T09:15:24.549Z,13.40
2022-11-05T09:17:51.553Z,13.50
2022-11-05T09:20:18.846Z,13.00
2022-11-05T09:22:46.805Z,13.00
2022-11-05T09:25:15.847Z,13.00
2022-11-05T09:27:43.510Z,13.00
2022-11-05T09:30:11.545Z,13.20
2022-11-05T09:32:38.886Z,13.20
2022-11-05T09:35:06.639Z,13.30
2022-11-05T09:37:33.749Z,13.20
2022-11-05T09:40:00.782Z,13.00
2022-11-05T09:42:39.692Z,12.90
2022-11-05T09:45:16.967Z,12.60
2022-11-05T09:47:53.720Z,12.50
2022-11-05T09:50:34.918Z,12.40
2022-11-05T09:53:04.076Z,12.30
2022-11-05T09:55:41.126Z,12.50
2022-11-05T09:58:35.571Z,12.70
2022-11-05T10:01:11.069Z,12.90
2022-11-05T10:03:46.166Z,13.00
2022-11-05T10:06:19.462Z,12.80
2022-11-05T10:08:51.533Z,12.80
2022-11-05T10:11:33.197Z,12.70
2022-11-05T10:14:07.038Z,12.30
2022-11-05T10:16:37.659Z,12.30
2022-11-05T10:19:25.024Z,12.30
2022-11-05T10:22:13.913Z,12.00
2022-11-05T10:24:43.897Z,11.90
2022-11-05T10:27:17.325Z,11.80
2022-11-05T10:29:44.694Z,11.80
2022-11-05T10:32:20.497Z,11.70
2022-11-05T10:34:47.777Z,11.50
2022-11-05T10:37:14.787Z,11.60
2022-11-05T10:39:41.763Z,11.60
2022-11-05T10:42:52.970Z,11.70
2022-11-05T10:45:47.340Z,11.80
2022-11-05T10:49:06.335Z,11.90
2022-11-05T10:51:34.199Z,12.00
2022-11-05T10:54:09.302Z,11.80
2022-11-05T10:56:38.748Z,11.90
2022-11-05T10:59:19.194Z,11.90
2022-11-05T11:01:46.870Z,11.80
2022-11-05T11:04:26.131Z,11.80
2022-11-05T11:06:58.647Z,11.90
2022-11-05T11:09:30.760Z,11.90
2022-11-05T11:12:07.371Z,12.10
2022-11-05T11:14:35.308Z,12.20
2022-11-05T11:17:29.137Z,12.30
2022-11-05T11:20:16.376Z,12.40
2022-11-05T11:22:54.265Z,12.40
2022-11-05T11:25:26.436Z,12.40
2022-11-05T11:27:53.837Z,12.30
2022-11-05T11:30:21.454Z,12.20
2022-11-05T11:32:49.633Z,12.00
2022-11-05T11:35:25.196Z,12.00
2022-11-05T11:37:55.016Z,12.00
2022-11-05T11:40:29.137Z,11.90
2022-11-05T11:42:58.915Z,11.80
2022-11-05T11:45:36.592Z,11.80
2022-11-05T11:48:06.837Z,11.90
2022-11-05T11:50:39.319Z,11.90
2022-11-05T11:53:41.807Z,11.80
2022-11-05T11:56:19.939Z,11.80
2022-11-05T11:59:35.099Z,11.90
2022-11-05T12:03:01.936Z,12.10
2022-11-05T12:06:02.929Z,12.10
2022-11-05T12:09:08.665Z,12.20
2022-11-05T12:11:44.788Z,12.10
2022-11-05T12:15:00.696Z,12.10
2022-11-05T12:17:44.909Z,12.00
2022-11-05T12:20:57.864Z,12.00
2022-11-05T12:29:53.701Z,11.90
2022-11-05T13:04:46.508Z,12.30
2022-11-05T13:07:18.264Z,12.20
2022-11-05T13:10:09.559Z,12.20
2022-11-05T13:12:40.728Z,12.10
2022-11-05T13:15:34.048Z,12.10
2022-11-05T13:18:06.648Z,12.00
2022-11-05T13:20:38.696Z,11.90
2022-11-05T13:23:41.709Z,11.90
2022-11-05T13:26:24.601Z,11.90
2022-11-05T13:29:02.853Z,11.90
2022-11-05T13:31:40.224Z,11.90
2022-11-05T13:34:12.463Z,11.90
2022-11-05T13:37:22.505Z,11.90
2022-11-05T13:40:03.127Z,11.90
2022-11-05T13:43:25.255Z,12.00
2022-11-05T13:46:19.784Z,12.00
2022-11-05T13:49:18.949Z,12.00
2022-11-05T13:55:06.226Z,12.10
2022-11-05T13:58:02.789Z,12.10
2022-11-05T14:00:37.708Z,12.10
2022-11-05T14:03:15.034Z,12.00
2022-11-05T14:05:43.042Z,11.90
2022-11-05T14:08:12.622Z,11.90
2022-11-05T14:10:45.857Z,11.80
2022-11-05T14:13:38.231Z,11.90
2022-11-05T14:16:16.809Z,11.90
2022-11-05T14:19:05.254Z,12.00
2022-11-05T14:21:46.405Z,12.10
2022-11-05T14:24:43.470Z,12.50
2022-11-05T14:27:40.588Z,13.00
2022-11-05T14:30:44.917Z,13.30
2022-11-05T14:33:38.693Z,13.50
2022-11-05T14:36:39.411Z,13.60
2022-11-05T14:39:29.078Z,13.20
2022-11-05T14:42:27.765Z,12.50
2022-11-05T14:45:26.410Z,12.10
2022-11-05T14:48:02.184Z,11.80
2022-11-05T14:50:39.852Z,11.50
2022-11-05T14:53:32.203Z,11.40
2022-11-05T14:56:12.446Z,11.20
2022-11-05T14:58:44.374Z,11.10
2022-11-05T15:01:34.453Z,11.00
2022-11-05T15:04:31.133Z,10.90
2022-11-05T15:07:24.312Z,10.90
2022-11-05T15:10:15.720Z,10.80
2022-11-05T15:12:49.063Z,10.70
2022-11-05T15:15:27.870Z,10.60
2022-11-05T15:18:39.156Z,10.50
2022-11-05T15:21:10.788Z,10.40
2022-11-05T15:23:45.329Z,10.40
2022-11-05T15:26:38.354Z,10.30
2022-11-05T15:29:19.295Z,10.30
2022-11-05T15:31:46.714Z,10.20
2022-11-05T15:34:33.833Z,10.20
2022-11-05T15:37:24.663Z,10.20
2022-11-05T15:39:53.889Z,10.10
2022-11-05T15:42:26.580Z,10.10
2022-11-05T15:44:55.784Z,10.00
2022-11-05T15:47:46.056Z,10.00
2022-11-05T15:50:15.934Z,10.00
2022-11-05T15:52:52.014Z,9.90
2022-11-05T15:55:25.629Z,9.90
2022-11-05T15:58:05.071Z,9.90
2022-11-05T16:00:36.809Z,9.80
2022-11-05T16:03:38.061Z,9.80
2022-11-05T16:06:09.925Z,9.80
2022-11-05T16:08:36.994Z,9.70
2022-11-05T16:11:04.140Z,9.70
2022-11-05T16:13:38.770Z,9.70
2022-11-05T16:16:16.317Z,9.70
2022-11-05T16:18:44.815Z,9.70
2022-11-05T16:21:22.774Z,9.60
2022-11-05T16:24:00.684Z,9.50
2022-11-05T16:29:37.750Z,9.50
2022-11-05T16:32:25.441Z,9.50
2022-11-05T16:35:06.428Z,9.50
2022-11-05T16:37:46.447Z,9.50
2022-11-05T16:40:25.928Z,9.40
2022-11-05T16:42:54.265Z,9.40
2022-11-05T16:45:24.634Z,9.40
2022-11-05T16:47:51.807Z,9.40
2022-11-05T16:50:37.751Z,9.40
2022-11-05T16:53:04.679Z,9.40
2022-11-05T16:55:32.788Z,9.40
2022-11-05T16:58:00.892Z,9.40
2022-11-05T17:00:27.906Z,9.40
2022-11-05T17:02:56.846Z,9.40
2022-11-05T17:05:26.799Z,9.40
2022-11-05T17:07:54.418Z,9.40
2022-11-05T17:10:23.031Z,9.40
2022-11-05T17:12:50.341Z,9.40
2022-11-05T17:15:29.254Z,9.40
2022-11-05T17:17:57.092Z,9.40
2022-11-05T17:20:45.391Z,9.40
2022-11-05T17:23:16.669Z,9.40
2022-11-05T17:25:46.776Z,9.40
2022-11-05T17:28:14.293Z,9.40
2022-11-05T17:30:47.880Z,9.40
2022-11-05T17:33:19.210Z,9.40
2022-11-05T17:35:46.472Z,9.40
2022-11-05T17:38:13.853Z,9.40
2022-11-05T17:40:41.295Z,9.40
2022-11-05T17:43:08.291Z,9.40
2022-11-05T17:45:40.750Z,9.40
2022-11-05T17:48:09.372Z,9.30
2022-11-05T17:50:40.166Z,9.30
2022-11-05T17:53:07.111Z,9.30
2022-11-05T17:55:34.229Z,9.30
2022-11-05T17:58:01.528Z,9.30
2022-11-05T18:00:29.079Z,9.30
2022-11-05T18:02:56.117Z,9.30
2022-11-05T18:05:24.297Z,9.30
2022-11-05T18:07:51.482Z,9.30
2022-11-05T18:10:18.668Z,9.30
2022-11-05T18:12:46.066Z,9.30
2022-11-05T18:15:14.655Z,9.20
2022-11-05T18:17:42.008Z,9.20
2022-11-05T18:20:15.710Z,9.30
2022-11-05T18:22:45.779Z,9.30
2022-11-05T18:25:13.437Z,9.30
2022-11-05T18:27:41.073Z,9.30
2022-11-05T18:30:09.859Z,9.30
2022-11-05T18:32:37.045Z,9.30
2022-11-05T18:35:04.306Z,9.40
2022-11-05T18:37:32.345Z,9.40
2022-11-05T18:40:00.912Z,9.40
2022-11-05T18:42:27.894Z,9.40
2022-11-05T18:44:54.807Z,9.40
2022-11-05T18:47:21.884Z,9.40
2022-11-05T18:49:48.831Z,9.40
2022-11-05T18:52:16.117Z,9.40
2022-11-05T18:54:43.267Z,9.40
2022-11-05T18:57:10.327Z,9.40
2022-11-05T18:59:39.528Z,9.40
2022-11-05T19:02:08.044Z,9.40
2022-11-05T19:04:37.808Z,9.40
2022-11-05T19:07:06.124Z,9.40
2022-11-05T19:09:37.614Z,9.40
2022-11-05T19:12:05.813Z,9.40
2022-11-05T19:14:33.288Z,9.40
2022-11-05T19:17:01.334Z,9.40
2022-11-05T19:19:28.837Z,9.40
2022-11-05T19:21:55.988Z,9.40
2022-11-05T19:24:23.046Z,9.40
2022-11-05T19:26:50.471Z,9.40
2022-11-05T19:29:17.821Z,9.40
2022-11-05T19:31:45.355Z,9.40
2022-11-05T19:34:14.810Z,9.40
2022-11-05T19:36:43.191Z,9.40
2022-11-05T19:39:13.055Z,9.40
2022-11-05T19:41:40.448Z,9.40
2022-11-05T19:44:07.517Z,9.50
2022-11-05T19:46:35.020Z,9.50
2022-11-05T19:49:02.530Z,9.50
2022-11-05T19:51:31.979Z,9.50
2022-11-05T19:54:00.745Z,9.50
2022-11-05T19:56:31.801Z,9.50
2022-11-05T19:58:59.994Z,9.50
2022-11-05T20:01:28.423Z,9.50
2022-11-05T20:03:57.716Z,9.50
2022-11-05T20:06:29.521Z,9.50
2022-11-05T20:11:54.624Z,9.60
2022-11-05T20:14:22.483Z,9.50
2022-11-05T20:16:50.279Z,9.50
2022-11-05T20:19:21.655Z,9.50
2022-11-05T20:21:49.004Z,9.50
2022-11-05T20:24:23.628Z,9.50
2022-11-05T20:26:52.389Z,9.50
2022-11-05T20:29:19.568Z,9.50
2022-11-05T20:31:46.836Z,9.40
2022-11-05T20:34:13.701Z,9.40
2022-11-05T20:36:41.365Z,9.40
2022-11-05T20:39:08.327Z,9.40
2022-11-05T20:41:35.350Z,9.40
2022-11-05T20:44:02.375Z,9.40
2022-11-05T20:46:29.413Z,9.40
2022-11-05T20:48:56.758Z,9.40
2022-11-05T20:51:25.492Z,9.50
2022-11-05T20:54:00.468Z,9.50
2022-11-05T20:56:33.873Z,9.50
2022-11-05T20:59:02.302Z,9.50
2022-11-05T21:01:31.836Z,9.50
2022-11-05T21:03:59.898Z,9.50
2022-11-05T21:06:26.985Z,9.50
2022-11-05T21:08:54.198Z,9.40
2022-11-05T21:11:21.070Z,9.40
2022-11-05T21:13:48.755Z,9.40
2022-11-05T21:16:18.786Z,9.40
2022-11-05T21:18:46.680Z,9.40
2022-11-05T21:21:16.844Z,9.40
2022-11-05T21:23:44.029Z,9.40
2022-11-05T21:26:13.521Z,9.40
2022-11-05T21:28:41.671Z,9.40
2022-11-05T21:31:09.731Z,9.40
2022-11-05T21:33:37.090Z,9.40
2022-11-05T21:36:12.519Z,9.40
2022-11-05T21:38:40.659Z,9.40
2022-11-05T21:41:08.615Z,9.40
2022-11-05T21:43:35.645Z,9.40
2022-11-05T21:46:04.462Z,9.30
2022-11-05T21:48:32.739Z,9.30
2022-11-05T21:51:18.646Z,9.40
2022-11-05T21:54:04.003Z,9.40
2022-11-05T21:56:49.911Z,9.30
2022-11-05T21:59:41.088Z,9.30
2022-11-05T22:02:09.796Z,9.30
2022-11-05T22:04:43.600Z,9.30
2022-11-05T22:07:13.546Z,9.20
2022-11-05T22:09:41.142Z,9.30
2022-11-05T22:12:11.929Z,9.30
2022-11-05T22:14:39.215Z,9.20
2022-11-05T22:17:07.090Z,9.20
2022-11-05T22:19:34.784Z,9.20
2022-11-05T22:22:06.412Z,9.20
2022-11-05T22:24:34.718Z,9.10
2022-11-05T22:27:04.790Z,9.10
2022-11-05T22:29:31.996Z,9.10
2022-11-05T22:32:00.471Z,9.10
2022-11-05T22:34:28.954Z,9.10
2022-11-05T22:36:56.322Z,9.00
2022-11-05T22:39:23.571Z,9.00
2022-11-05T22:41:53.946Z,9.00
2022-11-05T22:44:21.301Z,9.00
2022-11-05T22:46:49.530Z,9.00
2022-11-05T22:49:16.885Z,9.00
2022-11-05T22:51:44.416Z,9.00
2022-11-05T22:54:11.670Z,9.00
2022-11-05T22:56:41.998Z,9.00
2022-11-05T22:59:13.313Z,9.00
2022-11-05T23:01:42.665Z,9.00
2022-11-05T23:04:10.405Z,9.00
2022-11-05T23:06:55.991Z,9.00
2022-11-05T23:09:47.380Z,9.00
2022-11-05T23:12:25.517Z,9.00
2022-11-05T23:14:53.748Z,9.00
2022-11-05T23:17:39.742Z,9.00
2022-11-05T23:20:27.278Z,9.00
2022-11-05T23:23:12.947Z,9.00
2022-11-05T23:25:39.980Z,9.00
2022-11-05T23:28:10.171Z,8.90
2022-11-05T23:31:01.821Z,8.90
2022-11-05T23:33:29.263Z,8.90
2022-11-05T23:36:14.756Z,8.80
2022-11-05T23:38:41.810Z,8.80
2022-11-05T23:41:27.555Z,8.70
2022-11-05T23:44:13.138Z,8.60
2022-11-05T23:46:58.923Z,8.60
2022-11-05T23:49:26.135Z,8.50
2022-11-05T23:51:53.248Z,8.50
2022-11-05T23:54:20.418Z,8.50
2022-11-05T23:56:47.392Z,8.40
2022-11-05T23:59:14.350Z,8.40
